sensor_id;sensor_type;location;lat;lon;timestamp;P1;durP1;ratioP1;P2;durP2;ratioP2
10440;SDS011;5268;49.346;9.522;2023-10-31T04:10:15;2.70;;;1.00;;
10440;SDS011;5268;49.346;9.522;2023-10-31T04:15:17;2.30;;;0.88;;
10440;SDS011;5268;49.346;9.522;2023-10-31T04:20:20;2.28;;;0.88;;
10440;SDS011;5268;49.346;9.522;2023-10-31T04:25:23;1.23;;;0.80;;
10440;SDS011;5268;49.346;9.522;2023-10-31T04:30:27;1.92;;;1.10;;
10440;SDS011;5268;49.346;9.522;2023-10-31T04:35:29;1.10;;;0.90;;
10440;SDS011;5268;49.346;9.522;2023-10-31T04:40:32;1.05;;;0.80;;
10440;SDS011;5268;49.346;9.522;2023-10-31T04:45:34;2.67;;;1.10;;
10440;SDS011;5268;49.346;9.522;2023-10-31T04:50:36;1.33;;;0.70;;
10440;SDS011;5268;49.346;9.522;2023-10-31T04:55:40;2.50;;;0.80;;
10440;SDS011;5268;49.346;9.522;2023-10-31T05:00:42;1.48;;;0.90;;
10440;SDS011;5268;49.346;9.522;2023-10-31T05:05:44;1.88;;;0.98;;
10440;SDS011;5268;49.346;9.522;2023-10-31T05:10:48;2.83;;;0.80;;
10440;SDS011;5268;49.346;9.522;2023-10-31T05:15:50;3.38;;;1.23;;
10440;SDS011;5268;49.346;9.522;2023-10-31T05:20:52;4.43;;;1.00;;
10440;SDS011;5268;49.346;9.522;2023-10-31T05:25:55;1.55;;;0.80;;
10440;SDS011;5268;49.346;9.522;2023-10-31T05:30:57;2.03;;;1.00;;
10440;SDS011;5268;49.346;9.522;2023-10-31T05:35:59;2.03;;;1.10;;
10440;SDS011;5268;49.346;9.522;2023-10-31T05:41:04;2.65;;;1.20;;
10440;SDS011;5268;49.346;9.522;2023-10-31T05:46:10;2.30;;;0.90;;
10440;SDS011;5268;49.346;9.522;2023-10-31T05:51:14;1.27;;;0.88;;
10440;SDS011;5268;49.346;9.522;2023-10-31T05:56:18;1.58;;;0.80;;
10440;SDS011;5268;49.346;9.522;2023-10-31T06:01:20;1.55;;;1.00;;
10440;SDS011;5268;49.346;9.522;2023-10-31T06:06:22;3.35;;;0.90;;
10440;SDS011;5268;49.346;9.522;2023-10-31T06:11:25;1.83;;;1.23;;
10440;SDS011;5268;49.346;9.522;2023-10-31T06:16:27;1.48;;;0.98;;
10440;SDS011;5268;49.346;9.522;2023-10-31T06:21:29;3.03;;;1.00;;
10440;SDS011;5268;49.346;9.522;2023-10-31T06:26:33;2.15;;;1.08;;
10440;SDS011;5268;49.346;9.522;2023-10-31T06:31:35;1.80;;;1.20;;
10440;SDS011;5268;49.346;9.522;2023-10-31T06:36:37;1.75;;;1.15;;
10440;SDS011;5268;49.346;9.522;2023-10-31T06:41:40;1.00;;;0.85;;
10440;SDS011;5268;49.346;9.522;2023-10-31T06:46:42;2.00;;;0.80;;
10440;SDS011;5268;49.346;9.522;2023-10-31T06:51:44;1.52;;;1.05;;
10440;SDS011;5268;49.346;9.522;2023-10-31T06:56:48;1.05;;;0.73;;
10440;SDS011;5268;49.346;9.522;2023-10-31T07:01:50;1.17;;;0.98;;
10440;SDS011;5268;49.346;9.522;2023-10-31T07:06:53;2.08;;;0.75;;
10440;SDS011;5268;49.346;9.522;2023-10-31T07:11:58;1.77;;;0.98;;
10440;SDS011;5268;49.346;9.522;2023-10-31T07:17:01;2.17;;;0.73;;
10440;SDS011;5268;49.346;9.522;2023-10-31T07:22:03;1.67;;;0.80;;
10440;SDS011;5268;49.346;9.522;2023-10-31T07:27:07;2.55;;;0.80;;
10440;SDS011;5268;49.346;9.522;2023-10-31T07:32:09;2.35;;;0.80;;
10440;SDS011;5268;49.346;9.522;2023-10-31T07:37:11;3.25;;;0.85;;
10440;SDS011;5268;49.346;9.522;2023-10-31T07:42:14;2.38;;;0.70;;
10440;SDS011;5268;49.346;9.522;2023-10-31T07:47:16;2.10;;;0.90;;
10440;SDS011;5268;49.346;9.522;2023-10-31T07:52:18;2.20;;;0.77;;
10440;SDS011;5268;49.346;9.522;2023-10-31T07:57:22;1.30;;;0.80;;
10440;SDS011;5268;49.346;9.522;2023-10-31T08:02:24;1.45;;;0.80;;
10440;SDS011;5268;49.346;9.522;2023-10-31T08:07:26;1.58;;;0.70;;
10440;SDS011;5268;49.346;9.522;2023-10-31T08:12:31;1.73;;;0.88;;
10440;SDS011;5268;49.346;9.522;2023-10-31T08:17:33;1.77;;;0.95;;
10440;SDS011;5268;49.346;9.522;2023-10-31T08:22:35;1.83;;;1.00;;
10440;SDS011;5268;49.346;9.522;2023-10-31T08:27:40;1.73;;;1.00;;
10440;SDS011;5268;49.346;9.522;2023-10-31T08:32:42;1.20;;;1.00;;
10440;SDS011;5268;49.346;9.522;2023-10-31T08:37:44;2.00;;;1.00;;
10440;SDS011;5268;49.346;9.522;2023-10-31T08:42:47;2.50;;;0.90;;
10440;SDS011;5268;49.346;9.522;2023-10-31T08:47:49;2.42;;;1.20;;
10440;SDS011;5268;49.346;9.522;2023-10-31T08:52:51;2.72;;;1.00;;
10440;SDS011;5268;49.346;9.522;2023-10-31T08:57:55;2.17;;;0.90;;
10440;SDS011;5268;49.346;9.522;2023-10-31T09:02:57;4.10;;;1.60;;
10440;SDS011;5268;49.346;9.522;2023-10-31T09:07:59;2.17;;;1.38;;
10440;SDS011;5268;49.346;9.522;2023-10-31T09:13:03;2.42;;;1.30;;
10440;SDS011;5268;49.346;9.522;2023-10-31T09:18:06;4.68;;;1.95;;
10440;SDS011;5268;49.346;9.522;2023-10-31T09:23:08;2.30;;;1.05;;
10440;SDS011;5268;49.346;9.522;2023-10-31T09:28:11;4.55;;;1.40;;
10440;SDS011;5268;49.346;9.522;2023-10-31T09:33:13;2.67;;;1.15;;
10440;SDS011;5268;49.346;9.522;2023-10-31T09:38:15;4.07;;;1.17;;
10440;SDS011;5268;49.346;9.522;2023-10-31T09:43:19;4.10;;;1.08;;
10440;SDS011;5268;49.346;9.522;2023-10-31T09:48:21;2.92;;;1.27;;
10440;SDS011;5268;49.346;9.522;2023-10-31T09:53:23;3.33;;;1.00;;
10440;SDS011;5268;49.346;9.522;2023-10-31T09:58:27;2.75;;;1.30;;
10440;SDS011;5268;49.346;9.522;2023-10-31T10:03:29;4.70;;;1.20;;
10440;SDS011;5268;49.346;9.522;2023-10-31T10:13:34;2.25;;;1.20;;
10440;SDS011;5268;49.346;9.522;2023-10-31T10:18:36;3.72;;;1.30;;
10440;SDS011;5268;49.346;9.522;2023-10-31T10:23:39;3.58;;;1.30;;
10440;SDS011;5268;49.346;9.522;2023-10-31T10:28:43;4.75;;;1.25;;
10440;SDS011;5268;49.346;9.522;2023-10-31T10:33:48;4.57;;;1.33;;
10440;SDS011;5268;49.346;9.522;2023-10-31T10:38:52;3.03;;;1.00;;
10440;SDS011;5268;49.346;9.522;2023-10-31T10:44:04;4.75;;;1.40;;
10440;SDS011;5268;49.346;9.522;2023-10-31T10:49:14;4.70;;;1.50;;
10440;SDS011;5268;49.346;9.522;2023-10-31T10:54:18;5.43;;;1.30;;
10440;SDS011;5268;49.346;9.522;2023-10-31T10:59:33;5.05;;;1.30;;
10440;SDS011;5268;49.346;9.522;2023-10-31T11:04:41;3.22;;;1.02;;
10440;SDS011;5268;49.346;9.522;2023-10-31T11:09:45;3.75;;;1.15;;
10440;SDS011;5268;49.346;9.522;2023-10-31T11:14:51;4.05;;;1.30;;
10440;SDS011;5268;49.346;9.522;2023-10-31T11:19:54;3.03;;;1.30;;
10440;SDS011;5268;49.346;9.522;2023-10-31T11:24:57;3.08;;;1.13;;
10440;SDS011;5268;49.346;9.522;2023-10-31T11:30:02;3.20;;;1.30;;
10440;SDS011;5268;49.346;9.522;2023-10-31T11:35:07;3.03;;;1.13;;
10440;SDS011;5268;49.346;9.522;2023-10-31T11:40:16;4.93;;;1.30;;
10440;SDS011;5268;49.346;9.522;2023-10-31T11:45:28;3.20;;;1.20;;
10440;SDS011;5268;49.346;9.522;2023-10-31T11:50:32;2.42;;;1.38;;
10440;SDS011;5268;49.346;9.522;2023-10-31T11:55:36;5.75;;;1.65;;
10440;SDS011;5268;49.346;9.522;2023-10-31T12:00:42;6.63;;;1.40;;
10440;SDS011;5268;49.346;9.522;2023-10-31T12:05:51;2.97;;;1.40;;
10440;SDS011;5268;49.346;9.522;2023-10-31T12:11:02;4.03;;;1.25;;
10440;SDS011;5268;49.346;9.522;2023-10-31T12:16:09;4.05;;;1.40;;
10440;SDS011;5268;49.346;9.522;2023-10-31T12:21:13;7.05;;;1.77;;
10440;SDS011;5268;49.346;9.522;2023-10-31T12:26:20;5.25;;;1.23;;
10440;SDS011;5268;49.346;9.522;2023-10-31T12:31:24;3.15;;;1.30;;
10440;SDS011;5268;49.346;9.522;2023-10-31T12:36:26;3.80;;;1.00;;
10440;SDS011;5268;49.346;9.522;2023-10-31T12:41:28;4.18;;;1.40;;
10440;SDS011;5268;49.346;9.522;2023-10-31T12:46:32;2.97;;;1.20;;
10440;SDS011;5268;49.346;9.522;2023-10-31T12:51:35;4.15;;;1.30;;
10440;SDS011;5268;49.346;9.522;2023-10-31T12:56:38;2.50;;;1.20;;
10440;SDS011;5268;49.346;9.522;2023-10-31T13:01:44;3.42;;;1.40;;
10440;SDS011;5268;49.346;9.522;2023-10-31T13:06:54;4.07;;;1.20;;
10440;SDS011;5268;49.346;9.522;2023-10-31T13:12:00;3.60;;;1.38;;
10440;SDS011;5268;49.346;9.522;2023-10-31T13:17:04;4.22;;;1.00;;
10440;SDS011;5268;49.346;9.522;2023-10-31T13:22:06;4.18;;;1.50;;
10440;SDS011;5268;49.346;9.522;2023-10-31T13:27:09;4.75;;;1.15;;
10440;SDS011;5268;49.346;9.522;2023-10-31T13:32:17;3.40;;;1.30;;
10440;SDS011;5268;49.346;9.522;2023-10-31T13:37:20;3.08;;;1.30;;
10440;SDS011;5268;49.346;9.522;2023-10-31T13:42:22;3.55;;;1.15;;
10440;SDS011;5268;49.346;9.522;2023-10-31T13:47:27;3.80;;;1.25;;
10440;SDS011;5268;49.346;9.522;2023-10-31T13:52:30;1.95;;;1.10;;
10440;SDS011;5268;49.346;9.522;2023-10-31T13:57:32;3.05;;;1.05;;
10440;SDS011;5268;49.346;9.522;2023-10-31T14:02:36;4.55;;;1.10;;
10440;SDS011;5268;49.346;9.522;2023-10-31T14:07:39;1.63;;;0.98;;
10440;SDS011;5268;49.346;9.522;2023-10-31T14:12:42;3.58;;;1.30;;
10440;SDS011;5268;49.346;9.522;2023-10-31T14:17:45;2.50;;;1.05;;
10440;SDS011;5268;49.346;9.522;2023-10-31T14:22:47;2.83;;;1.05;;
10440;SDS011;5268;49.346;9.522;2023-10-31T14:27:50;3.40;;;1.08;;
10440;SDS011;5268;49.346;9.522;2023-10-31T14:32:53;2.58;;;0.90;;
10440;SDS011;5268;49.346;9.522;2023-10-31T14:37:55;2.97;;;1.20;;
10440;SDS011;5268;49.346;9.522;2023-10-31T14:42:57;3.60;;;1.13;;
10440;SDS011;5268;49.346;9.522;2023-10-31T14:48:01;3.03;;;1.10;;
10440;SDS011;5268;49.346;9.522;2023-10-31T14:53:03;3.08;;;0.98;;
10440;SDS011;5268;49.346;9.522;2023-10-31T14:58:05;3.50;;;1.02;;
10440;SDS011;5268;49.346;9.522;2023-10-31T15:03:09;3.60;;;1.00;;
10440;SDS011;5268;49.346;9.522;2023-10-31T15:08:11;2.65;;;1.70;;
10440;SDS011;5268;49.346;9.522;2023-10-31T15:13:13;2.63;;;1.23;;
10440;SDS011;5268;49.346;9.522;2023-10-31T15:18:17;3.03;;;1.38;;
10440;SDS011;5268;49.346;9.522;2023-10-31T15:23:19;2.42;;;1.30;;
10440;SDS011;5268;49.346;9.522;2023-10-31T15:28:21;3.35;;;1.60;;
10440;SDS011;5268;49.346;9.522;2023-10-31T15:33:26;2.75;;;1.45;;
10440;SDS011;5268;49.346;9.522;2023-10-31T15:38:28;3.88;;;1.65;;
10440;SDS011;5268;49.346;9.522;2023-10-31T15:43:31;4.15;;;1.40;;
10440;SDS011;5268;49.346;9.522;2023-10-31T15:48:34;3.42;;;1.27;;
10440;SDS011;5268;49.346;9.522;2023-10-31T15:53:36;4.43;;;1.40;;
10440;SDS011;5268;49.346;9.522;2023-10-31T15:58:38;5.50;;;1.50;;
10440;SDS011;5268;49.346;9.522;2023-10-31T16:03:42;2.45;;;1.50;;
10440;SDS011;5268;49.346;9.522;2023-10-31T16:08:44;3.38;;;1.30;;
10440;SDS011;5268;49.346;9.522;2023-10-31T16:13:46;3.60;;;1.35;;
10440;SDS011;5268;49.346;9.522;2023-10-31T16:18:49;2.63;;;1.95;;
10440;SDS011;5268;49.346;9.522;2023-10-31T16:23:52;2.05;;;1.58;;
10440;SDS011;5268;49.346;9.522;2023-10-31T16:28:55;2.38;;;1.25;;
10440;SDS011;5268;49.346;9.522;2023-10-31T16:33:59;2.42;;;1.20;;
10440;SDS011;5268;49.346;9.522;2023-10-31T16:39:02;2.03;;;1.15;;
10440;SDS011;5268;49.346;9.522;2023-10-31T16:44:04;2.40;;;1.27;;
10440;SDS011;5268;49.346;9.522;2023-10-31T16:49:07;1.98;;;1.27;;
10440;SDS011;5268;49.346;9.522;2023-10-31T16:54:09;3.58;;;1.73;;
10440;SDS011;5268;49.346;9.522;2023-10-31T16:59:11;1.73;;;1.40;;
10440;SDS011;5268;49.346;9.522;2023-10-31T17:04:15;3.25;;;2.30;;
10440;SDS011;5268;49.346;9.522;2023-10-31T17:09:17;3.67;;;2.35;;
10440;SDS011;5268;49.346;9.522;2023-10-31T17:14:19;1.90;;;1.42;;
10440;SDS011;5268;49.346;9.522;2023-10-31T17:19:24;4.05;;;1.70;;
10440;SDS011;5268;49.346;9.522;2023-10-31T17:24:26;3.40;;;1.40;;
10440;SDS011;5268;49.346;9.522;2023-10-31T17:29:28;3.92;;;2.42;;
10440;SDS011;5268;49.346;9.522;2023-10-31T17:34:31;2.78;;;1.85;;
10440;SDS011;5268;49.346;9.522;2023-10-31T17:39:33;3.25;;;2.10;;
10440;SDS011;5268;49.346;9.522;2023-10-31T17:44:35;5.78;;;2.90;;
10440;SDS011;5268;49.346;9.522;2023-10-31T17:49:38;9.60;;;6.00;;
10440;SDS011;5268;49.346;9.522;2023-10-31T17:54:40;6.15;;;3.88;;
10440;SDS011;5268;49.346;9.522;2023-10-31T17:59:43;8.07;;;4.35;;
10440;SDS011;5268;49.346;9.522;2023-10-31T18:04:46;2.20;;;1.80;;
10440;SDS011;5268;49.346;9.522;2023-10-31T18:09:48;2.63;;;1.70;;
10440;SDS011;5268;49.346;9.522;2023-10-31T18:14:51;4.40;;;2.63;;
10440;SDS011;5268;49.346;9.522;2023-10-31T18:19:54;2.17;;;1.63;;
10440;SDS011;5268;49.346;9.522;2023-10-31T18:24:57;2.95;;;1.90;;
10440;SDS011;5268;49.346;9.522;2023-10-31T18:29:59;3.30;;;1.98;;
10440;SDS011;5268;49.346;9.522;2023-10-31T18:35:02;4.28;;;2.20;;
10440;SDS011;5268;49.346;9.522;2023-10-31T18:40:05;2.92;;;2.25;;
10440;SDS011;5268;49.346;9.522;2023-10-31T18:45:09;3.10;;;2.55;;
10440;SDS011;5268;49.346;9.522;2023-10-31T18:50:15;4.68;;;3.50;;
10440;SDS011;5268;49.346;9.522;2023-10-31T18:55:18;4.40;;;2.20;;
10440;SDS011;5268;49.346;9.522;2023-10-31T19:00:21;3.60;;;3.30;;
10440;SDS011;5268;49.346;9.522;2023-10-31T19:05:27;8.68;;;5.47;;
10440;SDS011;5268;49.346;9.522;2023-10-31T19:10:29;9.95;;;6.10;;
10440;SDS011;5268;49.346;9.522;2023-10-31T19:15:31;4.05;;;2.30;;
10440;SDS011;5268;49.346;9.522;2023-10-31T19:20:35;3.72;;;2.53;;
10440;SDS011;5268;49.346;9.522;2023-10-31T19:25:37;3.60;;;2.33;;
10440;SDS011;5268;49.346;9.522;2023-10-31T19:30:41;3.58;;;2.60;;
10440;SDS011;5268;49.346;9.522;2023-10-31T19:35:44;3.78;;;3.22;;
10440;SDS011;5268;49.346;9.522;2023-10-31T19:40:46;2.97;;;2.22;;
10440;SDS011;5268;49.346;9.522;2023-10-31T19:45:49;2.38;;;2.10;;
10440;SDS011;5268;49.346;9.522;2023-10-31T19:50:53;4.18;;;3.15;;
10440;SDS011;5268;49.346;9.522;2023-10-31T19:55:55;2.95;;;2.10;;
10440;SDS011;5268;49.346;9.522;2023-10-31T20:00:58;3.88;;;2.15;;
10440;SDS011;5268;49.346;9.522;2023-10-31T20:06:01;6.22;;;2.40;;
10440;SDS011;5268;49.346;9.522;2023-10-31T20:11:06;3.03;;;2.10;;
10440;SDS011;5268;49.346;9.522;2023-10-31T20:16:11;2.70;;;1.90;;
10440;SDS011;5268;49.346;9.522;2023-10-31T20:21:14;4.72;;;2.00;;
10440;SDS011;5268;49.346;9.522;2023-10-31T20:26:17;3.10;;;2.17;;
10440;SDS011;5268;49.346;9.522;2023-10-31T20:31:20;1.77;;;1.38;;
10440;SDS011;5268;49.346;9.522;2023-10-31T20:36:24;3.17;;;1.50;;
10440;SDS011;5268;49.346;9.522;2023-10-31T20:41:26;2.45;;;1.67;;
10440;SDS011;5268;49.346;9.522;2023-10-31T20:46:29;1.88;;;1.40;;
10440;SDS011;5268;49.346;9.522;2023-10-31T20:51:33;2.40;;;1.73;;
10440;SDS011;5268;49.346;9.522;2023-10-31T20:56:35;3.05;;;2.63;;
10440;SDS011;5268;49.346;9.522;2023-10-31T21:01:37;2.42;;;1.77;;
10440;SDS011;5268;49.346;9.522;2023-10-31T21:06:40;3.13;;;2.40;;
10440;SDS011;5268;49.346;9.522;2023-10-31T21:11:42;4.13;;;1.60;;
10440;SDS011;5268;49.346;9.522;2023-10-31T21:16:44;2.30;;;2.10;;
10440;SDS011;5268;49.346;9.522;2023-10-31T21:21:47;4.72;;;2.20;;
10440;SDS011;5268;49.346;9.522;2023-10-31T21:26:50;1.98;;;1.50;;
10440;SDS011;5268;49.346;9.522;2023-10-31T21:31:52;2.05;;;1.70;;
10440;SDS011;5268;49.346;9.522;2023-10-31T21:36:55;2.83;;;1.92;;
10440;SDS011;5268;49.346;9.522;2023-10-31T21:41:57;1.73;;;1.50;;
10440;SDS011;5268;49.346;9.522;2023-10-31T21:47:00;2.75;;;1.80;;
10440;SDS011;5268;49.346;9.522;2023-10-31T21:52:04;2.80;;;2.28;;
10440;SDS011;5268;49.346;9.522;2023-10-31T21:57:07;2.28;;;1.75;;
10440;SDS011;5268;49.346;9.522;2023-10-31T22:02:09;3.30;;;1.33;;
10440;SDS011;5268;49.346;9.522;2023-10-31T22:07:12;2.05;;;1.52;;
10440;SDS011;5268;49.346;9.522;2023-10-31T22:12:14;3.53;;;1.60;;
10440;SDS011;5268;49.346;9.522;2023-10-31T22:17:16;3.25;;;1.30;;
10440;SDS011;5268;49.346;9.522;2023-10-31T22:22:19;2.20;;;1.48;;
10440;SDS011;5268;49.346;9.522;2023-10-31T22:27:21;3.15;;;1.50;;
10440;SDS011;5268;49.346;9.522;2023-10-31T22:32:23;2.35;;;1.90;;
10440;SDS011;5268;49.346;9.522;2023-10-31T22:37:27;2.65;;;2.20;;
10440;SDS011;5268;49.346;9.522;2023-10-31T22:42:29;2.05;;;1.75;;
10440;SDS011;5268;49.346;9.522;2023-10-31T22:47:33;2.65;;;1.70;;
10440;SDS011;5268;49.346;9.522;2023-10-31T22:52:40;3.55;;;2.20;;
